Time;durP1;ratioP1;P1;durP2;ratioP2;P2;SDS_P1;SDS_P2;PMS_P1;PMS_P2;Temp;Humidity;BMP_temperature;BMP_pressure;BME280_temperature;BME280_humidity;BME280_pressure;Samples;Min_cycle;Max_cycle;Signal;HPM_P1;HPM_P2
2022/06/30 00:01:11;;;;;;;7.43;6.90;;;23.80;95.90;;;;;;5048088;28;20453;-85
2022/06/30 00:03:38;;;;;;;7.70;7.10;;;23.80;96.20;;;;;;5066796;28;21799;-85
2022/06/30 00:06:07;;;;;;;7.60;6.90;;;24.00;96.50;;;;;;5065412;28;20531;-86
2022/06/30 00:08:34;;;;;;;8.43;7.60;;;24.10;95.90;;;;;;5068994;28;20444;-84
2022/06/30 00:11:06;;;;;;;8.00;7.20;;;23.80;96.10;;;;;;5052286;28;20452;-84
2022/06/30 00:13:36;;;;;;;7.90;7.20;;;23.60;96.80;;;;;;5050917;28;20455;-82
2022/06/30 00:16:03;;;;;;;8.07;7.40;;;23.50;96.90;;;;;;5048997;28;20484;-84
2022/06/30 00:18:31;;;;;;;8.33;7.63;;;23.60;97.00;;;;;;5048995;28;20954;-84
2022/06/30 00:20:58;;;;;;;7.87;7.27;;;23.60;97.00;;;;;;5068770;28;20511;-84
2022/06/30 00:23:25;;;;;;;7.93;7.23;;;23.50;97.00;;;;;;5047891;28;20456;-82
2022/06/30 00:25:52;;;;;;;8.17;7.50;;;23.40;96.90;;;;;;5068097;28;20463;-85
2022/06/30 00:28:19;;;;;;;8.43;7.50;;;23.10;97.30;;;;;;5050286;28;20451;-83
2022/06/30 00:30:47;;;;;;;7.60;7.00;;;23.00;97.90;;;;;;5071404;28;20480;-84
2022/06/30 00:33:14;;;;;;;7.97;7.37;;;22.90;98.00;;;;;;5050470;28;20460;-84
2022/06/30 00:35:40;;;;;;;8.10;7.43;;;22.80;98.20;;;;;;5071662;28;20468;-84
2022/06/30 00:38:07;;;;;;;7.60;7.00;;;22.70;98.40;;;;;;5072204;28;20446;-83
2022/06/30 00:40:45;;;;;;;7.77;7.07;;;22.70;98.60;;;;;;5052641;28;20451;-85
2022/06/30 00:43:13;;;;;;;8.57;7.87;;;22.70;98.60;;;;;;5070958;28;20469;-86
2022/06/30 00:45:41;;;;;;;7.93;7.23;;;23.00;98.30;;;;;;5069422;28;20482;-84
2022/06/30 00:48:09;;;;;;;8.67;7.97;;;23.10;98.30;;;;;;5067540;28;20459;-83
2022/06/30 00:50:36;;;;;;;9.00;8.20;;;23.00;99.00;;;;;;5071135;28;20812;-86
2022/06/30 00:53:04;;;;;;;9.43;8.60;;;22.90;99.40;;;;;;5080914;28;20444;-84
2022/06/30 00:55:32;;;;;;;10.20;9.20;;;22.90;99.60;;;;;;5064442;28;20614;-85
2022/06/30 00:58:01;;;;;;;8.33;7.60;;;23.00;99.30;;;;;;5064144;28;20441;-85
2022/06/30 01:00:33;;;;;;;8.77;7.97;;;22.90;98.70;;;;;;5056562;28;21019;-83
2022/06/30 01:03:01;;;;;;;8.27;7.60;;;22.90;98.80;;;;;;5076679;28;20430;-83
2022/06/30 01:05:52;;;;;;;8.97;8.27;;;22.80;99.00;;;;;;5070512;28;21693;-83
2022/06/30 01:08:18;;;;;;;8.77;7.97;;;22.70;99.00;;;;;;5076653;28;20463;-86
2022/06/30 01:13:31;;;;;;;10.20;7.67;;;22.70;98.80;;;;;;5071397;28;20447;-83
2022/06/30 01:15:58;;;;;;;8.83;8.03;;;22.60;98.90;;;;;;5075491;28;20720;-82
2022/06/30 01:18:28;;;;;;;9.70;8.30;;;22.60;99.00;;;;;;5053667;28;21117;-83
2022/06/30 01:20:55;;;;;;;8.23;7.53;;;22.60;99.00;;;;;;5070756;28;20470;-85
2022/06/30 01:23:21;;;;;;;8.77;8.07;;;22.70;99.00;;;;;;5067629;28;20451;-84
2022/06/30 01:25:48;;;;;;;8.07;7.40;;;22.70;98.70;;;;;;5067362;28;20476;-84
2022/06/30 01:28:15;;;;;;;9.23;8.43;;;22.60;98.80;;;;;;5048417;28;20463;-84
2022/06/30 01:30:41;;;;;;;9.10;8.30;;;22.60;98.60;;;;;;5065864;28;20488;-82
2022/06/30 01:33:08;;;;;;;8.53;7.73;;;22.60;98.90;;;;;;5051962;28;20451;-84
2022/06/30 01:35:36;;;;;;;7.90;7.30;;;22.50;99.20;;;;;;5068339;28;20483;-85
2022/06/30 01:38:03;;;;;;;8.57;7.63;;;22.50;99.50;;;;;;5048659;28;20459;-85
2022/06/30 01:40:35;;;;;;;8.63;7.97;;;22.50;99.40;;;;;;5049788;28;20600;-84
2022/06/30 01:43:06;;;;;;;8.30;7.60;;;22.50;99.30;;;;;;5051906;28;20490;-83
2022/06/30 01:45:33;;;;;;;9.60;8.00;;;22.70;99.10;;;;;;5050794;28;20477;-83
2022/06/30 01:48:00;;;;;;;8.63;8.03;;;22.60;99.10;;;;;;5054856;28;20466;-85
2022/06/30 01:50:29;;;;;;;9.00;8.17;;;22.60;99.30;;;;;;5049263;28;20582;-84
2022/06/30 01:52:57;;;;;;;8.80;8.03;;;22.60;99.60;;;;;;5067801;28;20478;-84
2022/06/30 01:55:24;;;;;;;9.07;8.27;;;22.40;99.70;;;;;;5065639;28;20477;-86
2022/06/30 01:57:52;;;;;;;8.20;7.50;;;22.20;99.90;;;;;;5067578;28;20570;-87
2022/06/30 02:00:21;;;;;;;9.27;8.57;;;22.20;99.90;;;;;;5048727;28;20464;-85
2022/06/30 02:02:48;;;;;;;9.20;8.50;;;22.50;99.90;;;;;;5053471;28;20476;-82
2022/06/30 02:05:16;;;;;;;9.70;8.90;;;22.40;99.90;;;;;;5067690;28;20467;-83
2022/06/30 02:07:43;;;;;;;9.80;9.00;;;22.10;99.90;;;;;;5068154;28;20459;-83
2022/06/30 02:10:16;;;;;;;10.17;9.27;;;22.00;99.90;;;;;;5053056;28;20490;-85
2022/06/30 02:12:46;;;;;;;10.50;9.67;;;21.90;99.90;;;;;;5069805;28;20455;-84
2022/06/30 02:15:19;;;;;;;11.10;10.00;;;21.80;99.90;;;;;;5055518;28;20540;-84
2022/06/30 02:17:48;;;;;;;9.30;8.60;;;21.90;99.90;;;;;;5053156;28;20674;-85
2022/06/30 02:20:20;;;;;;;9.90;9.10;;;21.90;99.90;;;;;;5059577;28;20512;-85
2022/06/30 02:22:49;;;;;;;10.33;7.97;;;21.90;99.90;;;;;;5073398;28;20512;-84
2022/06/30 02:25:16;;;;;;;9.70;8.60;;;21.70;99.90;;;;;;5070261;28;21027;-83
2022/06/30 02:27:43;;;;;;;9.07;8.37;;;21.90;99.90;;;;;;5054452;28;20464;-84
2022/06/30 02:30:10;;;;;;;10.10;9.10;;;22.00;99.90;;;;;;5058421;28;20475;-83
2022/06/30 02:32:37;;;;;;;8.80;8.20;;;22.00;99.90;;;;;;5076564;28;21039;-86
2022/06/30 02:35:05;;;;;;;9.83;9.03;;;21.90;99.90;;;;;;5072688;28;20475;-86
2022/06/30 02:37:31;;;;;;;10.03;9.23;;;22.00;99.90;;;;;;5085231;28;20466;-83
2022/06/30 02:39:58;;;;;;;11.00;8.80;;;21.90;99.90;;;;;;5075766;28;20448;-85
2022/06/30 02:42:25;;;;;;;9.20;8.40;;;21.80;99.90;;;;;;5072592;28;20451;-84
2022/06/30 02:44:51;;;;;;;9.30;8.53;;;21.80;99.90;;;;;;5067118;28;21058;-86
2022/06/30 02:47:18;;;;;;;10.20;9.37;;;21.70;99.90;;;;;;5049024;28;20462;-85
2022/06/30 02:49:45;;;;;;;10.23;9.40;;;21.70;99.90;;;;;;5052304;28;20479;-84
2022/06/30 02:52:11;;;;;;;9.53;8.83;;;21.70;99.90;;;;;;5068880;28;20478;-84
2022/06/30 02:54:38;;;;;;;9.27;8.37;;;21.60;99.90;;;;;;5076499;28;20490;-85
2022/06/30 02:57:05;;;;;;;9.60;8.70;;;21.60;99.90;;;;;;5056590;28;20459;-83
2022/06/30 02:59:32;;;;;;;9.43;8.63;;;21.70;99.90;;;;;;5069347;28;20456;-84
2022/06/30 03:01:59;;;;;;;9.83;8.93;;;21.70;99.90;;;;;;5059816;28;20452;-83
2022/06/30 03:04:26;;;;;;;9.70;8.90;;;21.70;99.90;;;;;;5069484;28;20951;-82
2022/06/30 03:06:55;;;;;;;10.90;9.80;;;21.70;99.90;;;;;;5052633;28;20458;-83
2022/06/30 03:09:23;;;;;;;11.13;10.13;;;21.60;99.90;;;;;;5052271;28;20461;-81
2022/06/30 03:11:50;;;;;;;10.23;9.23;;;21.50;99.90;;;;;;5066836;28;20461;-82
2022/06/30 03:14:18;;;;;;;10.10;9.20;;;21.40;99.90;;;;;;5067401;28;20906;-83
2022/06/30 03:16:45;;;;;;;9.30;8.50;;;21.30;99.90;;;;;;5049292;28;20851;-81
2022/06/30 03:19:12;;;;;;;10.03;9.13;;;21.40;99.90;;;;;;5075610;28;20540;-82
2022/06/30 03:21:39;;;;;;;10.30;9.50;;;21.50;99.90;;;;;;5074627;28;20464;-81
2022/06/30 03:24:06;;;;;;;11.07;10.07;;;21.40;99.90;;;;;;5056918;28;20463;-84
2022/06/30 03:26:33;;;;;;;11.00;9.90;;;21.30;99.90;;;;;;5073118;28;20462;-85
2022/06/30 03:29:00;;;;;;;10.00;9.10;;;21.20;99.90;;;;;;5074494;28;20455;-83
2022/06/30 03:31:26;;;;;;;11.10;9.90;;;21.30;99.90;;;;;;5074608;28;20479;-81
2022/06/30 03:33:53;;;;;;;10.87;9.97;;;21.20;99.90;;;;;;5074369;28;20552;-81
2022/06/30 03:36:20;;;;;;;9.80;9.00;;;21.20;99.90;;;;;;5016734;28;1099995;-83
2022/06/30 03:38:46;;;;;;;10.50;9.60;;;21.00;99.90;;;;;;5078190;28;20212;-86
2022/06/30 03:41:13;;;;;;;11.20;10.20;;;21.10;99.90;;;;;;5090291;28;20438;-86
2022/06/30 03:43:40;;;;;;;9.90;9.00;;;21.20;99.90;;;;;;5094396;28;20447;-87
2022/06/30 03:46:07;;;;;;;12.03;10.03;;;21.30;99.90;;;;;;5095358;28;20467;-87
2022/06/30 03:48:35;;;;;;;9.47;8.77;;;21.30;99.90;;;;;;5080248;28;20478;-86
2022/06/30 03:51:03;;;;;;;9.57;8.53;;;21.30;99.90;;;;;;5082271;28;20546;-83
2022/06/30 03:53:30;;;;;;;9.53;8.73;;;21.20;99.90;;;;;;5098019;28;20531;-87
2022/06/30 03:55:57;;;;;;;9.53;8.73;;;21.00;99.90;;;;;;5076678;28;20534;-84
2022/06/30 03:58:24;;;;;;;10.67;9.77;;;21.00;99.90;;;;;;5054886;28;20457;-84
2022/06/30 04:00:50;;;;;;;12.30;8.93;;;21.00;99.90;;;;;;5073855;28;20466;-83
2022/06/30 04:03:17;;;;;;;9.47;8.47;;;21.10;99.90;;;;;;5058137;28;20465;-84
2022/06/30 04:05:44;;;;;;;9.70;8.90;;;20.90;99.90;;;;;;5062556;28;20479;-83
2022/06/30 04:08:11;;;;;;;10.17;9.30;;;21.10;99.90;;;;;;5065689;28;20466;-83
2022/06/30 04:10:37;;;;;;;12.50;9.13;;;21.30;99.90;;;;;;5073826;28;20494;-85
2022/06/30 04:13:04;;;;;;;10.07;9.27;;;21.30;99.90;;;;;;5072820;28;21071;-85
2022/06/30 04:15:31;;;;;;;10.90;9.90;;;21.30;99.90;;;;;;5077818;28;20466;-83
2022/06/30 04:17:57;;;;;;;10.70;9.80;;;21.30;99.90;;;;;;5081245;28;20508;-84
2022/06/30 04:20:24;;;;;;;10.47;9.47;;;21.20;99.90;;;;;;5076842;28;20470;-84
2022/06/30 04:22:52;;;;;;;11.40;10.30;;;21.10;99.90;;;;;;5057073;28;20849;-83
2022/06/30 04:25:20;;;;;;;11.00;9.93;;;21.10;99.90;;;;;;5083265;28;20573;-85
2022/06/30 04:27:52;;;;;;;10.20;9.30;;;21.10;99.90;;;;;;5092928;28;20434;-86
2022/06/30 04:32:37;;;;;;;9.77;8.93;;;20.90;99.90;;;;;;5068074;28;20474;-86
2022/06/30 04:33:07;;;;;;;10.47;9.57;;;21.00;99.90;;;;;;5085110;28;20523;-86
2022/06/30 04:35:35;;;;;;;11.30;10.30;;;21.10;99.90;;;;;;5056521;28;20488;-84
2022/06/30 04:38:03;;;;;;;11.80;10.57;;;21.30;99.90;;;;;;5071669;28;20488;-85
2022/06/30 04:43:15;;;;;;;10.90;9.80;;;21.30;99.90;;;;;;5090827;28;20447;-85
2022/06/30 04:45:42;;;;;;;14.47;12.07;;;21.20;99.90;;;;;;5092044;28;20451;-86
2022/06/30 04:48:09;;;;;;;11.03;9.90;;;21.40;99.90;;;;;;5095150;28;20456;-85
2022/06/30 04:50:36;;;;;;;10.60;9.60;;;21.50;99.90;;;;;;5095181;28;20463;-86
2022/06/30 04:53:02;;;;;;;11.60;10.60;;;21.50;99.90;;;;;;5091943;28;20454;-86
2022/06/30 04:55:29;;;;;;;11.40;10.50;;;21.50;99.90;;;;;;5075516;28;20510;-84
2022/06/30 04:57:56;;;;;;;13.83;10.40;;;21.40;99.90;;;;;;5092081;28;21471;-85
2022/06/30 05:00:22;;;;;;;13.13;11.73;;;21.30;99.90;;;;;;5088050;28;20463;-80
2022/06/30 05:02:49;;;;;;;12.53;11.20;;;21.10;99.90;;;;;;5089480;28;20502;-83
2022/06/30 05:05:16;;;;;;;14.83;10.57;;;21.10;99.90;;;;;;5091326;28;20565;-85
2022/06/30 05:07:43;;;;;;;15.03;12.87;;;21.20;99.90;;;;;;5065732;28;20558;-86
2022/06/30 05:10:09;;;;;;;14.47;11.30;;;21.50;99.90;;;;;;5063650;28;20449;-84
2022/06/30 05:12:36;;;;;;;15.43;11.60;;;21.50;99.90;;;;;;5075602;28;20462;-84
2022/06/30 05:15:04;;;;;;;12.37;11.17;;;21.30;99.90;;;;;;5055268;28;20499;-84
2022/06/30 05:17:33;;;;;;;12.20;11.07;;;21.20;99.90;;;;;;5075827;28;20436;-82
2022/06/30 05:20:00;;;;;;;11.27;10.07;;;21.40;99.90;;;;;;5058589;28;20444;-84
2022/06/30 05:22:27;;;;;;;11.30;10.30;;;21.50;99.90;;;;;;5072740;28;20455;-84
2022/06/30 05:27:39;;;;;;;11.80;10.60;;;21.80;99.90;;;;;;5064992;28;20473;-83
2022/06/30 05:30:07;;;;;;;12.43;11.23;;;22.00;99.90;;;;;;5049340;28;20458;-82
2022/06/30 05:32:34;;;;;;;12.70;11.53;;;22.10;99.90;;;;;;5048076;28;20423;-85
2022/06/30 05:35:01;;;;;;;12.53;11.43;;;22.00;99.90;;;;;;5048821;28;20479;-84
2022/06/30 05:37:28;;;;;;;13.17;11.77;;;22.20;99.90;;;;;;5067195;28;20462;-85
2022/06/30 05:39:54;;;;;;;14.60;11.50;;;22.00;99.90;;;;;;5065424;28;20469;-83
2022/06/30 05:42:21;;;;;;;14.03;12.57;;;22.00;99.90;;;;;;5071872;28;20828;-85
2022/06/30 05:44:48;;;;;;;13.63;12.33;;;22.00;99.90;;;;;;5066967;28;20546;-84
2022/06/30 05:47:14;;;;;;;13.23;11.87;;;22.10;99.90;;;;;;5047219;28;20798;-86
2022/06/30 05:49:41;;;;;;;14.00;11.87;;;22.10;99.90;;;;;;5049150;28;20623;-83
2022/06/30 05:52:08;;;;;;;13.80;12.47;;;22.20;99.90;;;;;;5069563;28;20507;-84
2022/06/30 05:54:34;;;;;;;12.60;11.40;;;22.20;99.90;;;;;;5050716;28;20559;-82
2022/06/30 05:57:01;;;;;;;13.13;11.97;;;22.30;99.90;;;;;;5049733;28;20464;-83
2022/06/30 05:59:28;;;;;;;12.60;11.57;;;22.40;99.90;;;;;;5068128;28;20538;-84
2022/06/30 06:01:55;;;;;;;12.87;11.77;;;22.20;99.90;;;;;;5064497;28;20472;-84
2022/06/30 06:04:22;;;;;;;13.17;11.97;;;22.30;99.90;;;;;;5049123;28;20528;-84
2022/06/30 06:06:49;;;;;;;12.70;11.50;;;22.30;99.90;;;;;;5049525;28;20459;-82
2022/06/30 06:09:16;;;;;;;13.43;11.87;;;22.20;99.90;;;;;;5065976;28;20452;-81
2022/06/30 06:11:43;;;;;;;11.87;10.67;;;22.40;99.90;;;;;;5066512;28;20540;-83
2022/06/30 06:14:10;;;;;;;13.03;11.73;;;22.50;99.90;;;;;;5048612;28;20454;-85
2022/06/30 06:16:37;;;;;;;16.90;12.70;;;22.60;99.90;;;;;;5067264;28;20440;-81
2022/06/30 06:19:03;;;;;;;12.90;11.73;;;22.50;99.90;;;;;;5067397;28;22269;-82
2022/06/30 06:21:32;;;;;;;12.57;11.27;;;22.70;99.90;;;;;;5066673;28;20457;-83
2022/06/30 06:23:58;;;;;;;12.30;11.30;;;22.80;99.90;;;;;;5068309;28;20468;-82
2022/06/30 06:26:25;;;;;;;12.13;10.60;;;22.70;99.90;;;;;;5069498;28;20451;-83
2022/06/30 06:29:08;;;;;;;12.40;11.30;;;22.80;99.90;;;;;;5069192;28;20467;-82
2022/06/30 06:31:39;;;;;;;12.23;10.93;;;22.80;99.90;;;;;;5070192;28;20492;-87
2022/06/30 06:34:07;;;;;;;12.10;11.00;;;22.90;99.90;;;;;;5066766;28;20439;-80
2022/06/30 06:36:34;;;;;;;12.27;11.00;;;22.90;99.90;;;;;;5066904;28;20428;-86
2022/06/30 06:39:01;;;;;;;12.63;11.53;;;23.00;99.90;;;;;;5083285;28;20460;-85
2022/06/30 06:41:28;;;;;;;12.50;11.30;;;23.10;99.90;;;;;;5076607;28;20444;-83
2022/06/30 06:43:55;;;;;;;11.57;10.37;;;23.30;99.90;;;;;;5062185;28;20909;-83
2022/06/30 06:46:26;;;;;;;11.10;10.00;;;23.40;99.90;;;;;;5053298;28;20455;-86
2022/06/30 06:48:55;;;;;;;11.57;10.50;;;23.60;99.50;;;;;;5029406;28;20556;-83
2022/06/30 06:51:22;;;;;;;11.40;10.50;;;23.60;99.10;;;;;;5049493;28;20489;-84
2022/06/30 06:53:49;;;;;;;11.67;10.57;;;23.60;99.10;;;;;;5069758;28;20861;-84
2022/06/30 06:56:16;;;;;;;12.87;10.33;;;23.60;98.80;;;;;;5053599;28;20475;-82
2022/06/30 06:58:43;;;;;;;11.47;10.47;;;23.70;98.80;;;;;;5050829;28;21207;-84
2022/06/30 07:01:11;;;;;;;10.87;9.97;;;23.70;98.60;;;;;;5053513;28;20434;-83
2022/06/30 07:03:38;;;;;;;9.80;8.90;;;23.70;98.50;;;;;;5074673;28;20435;-83
2022/06/30 07:06:06;;;;;;;10.10;9.20;;;23.60;98.80;;;;;;5076677;28;20479;-84
2022/06/30 07:08:34;;;;;;;10.27;9.27;;;24.00;98.20;;;;;;5075495;28;20803;-83
2022/06/30 07:11:03;;;;;;;12.47;10.60;;;23.90;97.80;;;;;;5070209;28;20477;-86
2022/06/30 07:13:30;;;;;;;9.80;9.00;;;24.00;97.80;;;;;;5066268;28;20458;-83
2022/06/30 07:15:58;;;;;;;11.23;10.13;;;24.20;97.80;;;;;;5060147;28;20490;-84
2022/06/30 07:18:25;;;;;;;10.37;9.57;;;24.50;97.40;;;;;;5059238;28;20462;-84
2022/06/30 07:20:51;;;;;;;11.97;9.37;;;24.50;96.70;;;;;;5078517;28;20455;-82
2022/06/30 07:23:19;;;;;;;9.77;8.97;;;24.60;96.90;;;;;;5079455;28;20459;-88
2022/06/30 07:25:56;;;;;;;9.77;8.87;;;24.50;96.80;;;;;;5071590;28;20522;-84
2022/06/30 07:28:23;;;;;;;11.00;8.20;;;24.60;96.20;;;;;;5068128;28;20460;-85
2022/06/30 07:31:11;;;;;;;9.80;9.00;;;24.60;96.20;;;;;;5048874;28;20996;-84
2022/06/30 07:33:37;;;;;;;9.60;8.70;;;24.90;95.80;;;;;;5047434;28;20972;-82
2022/06/30 07:36:04;;;;;;;8.93;7.90;;;25.00;95.40;;;;;;5064210;28;22212;-85
2022/06/30 07:38:31;;;;;;;9.40;8.50;;;24.70;95.50;;;;;;5064735;28;20459;-83
2022/06/30 07:40:58;;;;;;;9.20;8.43;;;24.80;96.20;;;;;;5065803;28;20960;-84
2022/06/30 07:43:24;;;;;;;9.57;8.60;;;25.00;95.40;;;;;;5064619;28;20463;-85
2022/06/30 07:45:52;;;;;;;9.67;8.93;;;25.10;94.90;;;;;;5046726;28;20736;-84
2022/06/30 07:48:20;;;;;;;9.23;8.30;;;24.90;95.30;;;;;;5062053;28;20463;-86
2022/06/30 07:50:47;;;;;;;9.20;8.27;;;24.90;95.60;;;;;;5064276;28;20461;-84
2022/06/30 07:53:16;;;;;;;8.80;8.00;;;25.10;95.70;;;;;;5048709;28;20545;-85
2022/06/30 07:55:43;;;;;;;8.27;7.73;;;25.10;95.30;;;;;;5049298;28;20494;-83
2022/06/30 07:58:10;;;;;;;9.47;8.63;;;25.10;95.50;;;;;;5048655;28;21013;-86
2022/06/30 08:00:37;;;;;;;8.63;7.80;;;25.50;94.90;;;;;;5048121;28;20453;-85
2022/06/30 08:03:05;;;;;;;8.90;8.20;;;25.80;94.50;;;;;;5049460;28;20534;-84
2022/06/30 08:05:36;;;;;;;8.67;8.03;;;25.90;93.70;;;;;;5048688;28;20583;-84
2022/06/30 08:08:02;;;;;;;9.83;9.03;;;26.30;93.20;;;;;;5044603;28;20489;-85
2022/06/30 08:10:29;;;;;;;8.77;8.00;;;26.40;92.40;;;;;;5063427;28;20469;-86
2022/06/30 08:12:56;;;;;;;9.57;8.57;;;26.30;93.00;;;;;;5045690;28;20488;-86
2022/06/30 08:15:23;;;;;;;10.17;9.17;;;26.60;92.50;;;;;;5063780;28;20475;-84
2022/06/30 08:17:49;;;;;;;9.17;8.23;;;26.70;92.20;;;;;;5044833;28;20451;-87
2022/06/30 08:20:17;;;;;;;9.67;8.77;;;26.90;91.60;;;;;;5048741;28;20491;-85
2022/06/30 08:22:43;;;;;;;8.73;8.03;;;26.90;91.40;;;;;;5064241;28;20450;-84
2022/06/30 08:25:10;;;;;;;10.87;8.77;;;26.60;91.90;;;;;;5064995;28;20481;-83
2022/06/30 08:27:37;;;;;;;9.00;8.20;;;26.80;91.90;;;;;;5047150;28;20925;-83
2022/06/30 08:30:05;;;;;;;9.10;8.40;;;27.00;91.20;;;;;;5050264;28;20547;-82
2022/06/30 08:32:31;;;;;;;10.70;7.60;;;27.50;90.10;;;;;;5062099;28;20997;-83
2022/06/30 08:34:58;;;;;;;9.50;8.60;;;27.80;88.20;;;;;;5041588;28;20560;-82
2022/06/30 08:37:25;;;;;;;11.03;7.60;;;28.10;86.70;;;;;;5048973;28;21124;-83
2022/06/30 08:42:40;;;;;;;7.40;6.80;;;28.30;83.60;;;;;;5073182;28;20466;-85
2022/06/30 08:45:17;;;;;;;7.40;6.67;;;28.10;83.60;;;;;;5078903;28;20474;-86
2022/06/30 08:47:48;;;;;;;6.87;6.30;;;28.00;83.80;;;;;;5063663;28;20458;-83
2022/06/30 08:50:17;;;;;;;7.40;6.47;;;27.80;82.20;;;;;;5080994;28;20537;-83
2022/06/30 08:52:52;;;;;;;5.87;5.37;;;28.00;82.30;;;;;;5090930;28;20567;-82
2022/06/30 08:55:24;;;;;;;6.90;6.30;;;28.30;80.20;;;;;;5083435;28;20474;-84
2022/06/30 08:57:54;;;;;;;6.97;6.20;;;29.10;79.10;;;;;;5069650;28;20443;-85
2022/06/30 09:00:21;;;;;;;8.60;6.20;;;29.10;78.10;;;;;;5080671;28;20446;-82
2022/06/30 09:02:48;;;;;;;6.77;6.17;;;29.80;76.30;;;;;;5083220;28;20926;-85
2022/06/30 09:05:15;;;;;;;6.97;6.27;;;29.80;73.30;;;;;;5081807;28;20493;-82
2022/06/30 09:07:42;;;;;;;7.00;6.30;;;30.10;71.10;;;;;;5081855;28;20454;-82
2022/06/30 09:10:29;;;;;;;5.90;5.50;;;30.00;70.00;;;;;;5084046;28;20458;-83
2022/06/30 09:13:01;;;;;;;5.67;5.20;;;30.10;69.80;;;;;;5082793;28;20518;-84
2022/06/30 09:15:37;;;;;;;5.43;5.03;;;31.00;65.80;;;;;;5067056;28;20477;-88
2022/06/30 09:18:04;;;;;;;5.97;5.30;;;31.50;62.20;;;;;;5064927;28;20557;-84
2022/06/30 09:20:36;;;;;;;7.77;5.80;;;31.70;61.20;;;;;;5067985;28;20461;-84
2022/06/30 09:23:19;;;;;;;6.90;6.00;;;31.20;62.50;;;;;;5081636;28;20454;-83
2022/06/30 09:25:51;;;;;;;14.17;7.67;;;31.10;64.00;;;;;;5067008;28;20483;-84
2022/06/30 09:28:42;;;;;;;6.70;6.10;;;31.30;62.50;;;;;;5083087;28;20991;-84
2022/06/30 09:31:34;;;;;;;5.87;5.37;;;32.10;59.70;;;;;;5077064;28;20466;-84
2022/06/30 09:34:16;;;;;;;4.93;4.53;;;31.80;60.50;;;;;;5083584;28;20456;-84
2022/06/30 09:36:43;;;;;;;7.37;5.80;;;33.00;57.00;;;;;;5067840;28;20442;-84
2022/06/30 09:39:13;;;;;;;6.80;4.93;;;32.20;57.20;;;;;;5065382;28;20557;-84
2022/06/30 09:41:42;;;;;;;12.43;4.40;;;32.40;56.60;;;;;;5082394;28;20462;-84
2022/06/30 09:44:15;;;;;;;4.60;3.90;;;32.50;55.60;;;;;;5085739;28;21477;-84
2022/06/30 09:47:01;;;;;;;4.33;4.00;;;32.80;54.40;;;;;;5083720;28;20462;-87
2022/06/30 09:49:30;;;;;;;3.60;3.30;;;33.10;52.80;;;;;;5082908;28;21255;-85
2022/06/30 09:51:59;;;;;;;3.70;3.40;;;34.40;49.60;;;;;;5084677;28;20500;-86
2022/06/30 09:54:26;;;;;;;3.53;3.30;;;34.40;47.50;;;;;;5083699;28;20489;-83
2022/06/30 09:57:04;;;;;;;4.33;3.77;;;33.90;47.60;;;;;;5065236;28;20982;-86
2022/06/30 09:59:32;;;;;;;3.80;3.50;;;34.10;48.00;;;;;;5065056;28;20457;-84
2022/06/30 10:01:59;;;;;;;4.20;3.90;;;35.10;46.50;;;;;;5083951;28;20507;-84
2022/06/30 10:04:26;;;;;;;4.17;3.30;;;36.40;44.90;;;;;;5085785;28;20458;-86
2022/06/30 10:06:53;;;;;;;4.47;4.17;;;36.40;44.40;;;;;;5084074;28;20545;-86
2022/06/30 10:09:20;;;;;;;4.50;4.13;;;37.40;42.10;;;;;;5081028;28;20465;-84
2022/06/30 10:11:48;;;;;;;4.87;4.17;;;36.20;42.70;;;;;;5083726;28;20574;-85
2022/06/30 10:14:16;;;;;;;4.10;3.73;;;36.20;43.40;;;;;;5083693;28;20447;-83
2022/06/30 10:16:43;;;;;;;5.40;3.77;;;36.40;42.60;;;;;;5067311;28;20455;-85
2022/06/30 10:19:12;;;;;;;5.97;3.63;;;35.80;43.50;;;;;;5086461;28;20450;-85
2022/06/30 10:21:40;;;;;;;4.43;3.60;;;36.10;43.10;;;;;;5067516;28;20465;-86
2022/06/30 10:24:08;;;;;;;3.17;2.97;;;36.40;40.60;;;;;;5084295;28;20450;-84
2022/06/30 10:29:22;;;;;;;5.57;3.20;;;35.30;41.60;;;;;;5086430;28;20474;-84
2022/06/30 10:32:00;;;;;;;3.70;3.40;;;35.60;41.00;;;;;;5084103;28;20555;-85
2022/06/30 10:34:36;;;;;;;3.50;3.20;;;35.90;40.20;;;;;;5065221;28;20478;-84
2022/06/30 10:37:32;;;;;;;3.40;3.20;;;36.20;40.00;;;;;;5083108;28;20718;-83
2022/06/30 10:40:08;;;;;;;3.43;3.13;;;36.00;40.20;;;;;;5086788;28;20450;-85
2022/06/30 10:42:49;;;;;;;3.30;3.10;;;36.70;38.70;;;;;;5086778;28;20450;-82
2022/06/30 10:45:31;;;;;;;3.53;3.03;;;36.30;39.10;;;;;;5085489;28;21349;-84
2022/06/30 10:47:58;;;;;;;3.87;3.57;;;36.00;39.90;;;;;;5084335;28;21062;-85
2022/06/30 10:50:38;;;;;;;4.23;3.93;;;35.50;40.40;;;;;;5087918;28;20458;-82
2022/06/30 10:53:16;;;;;;;7.03;4.10;;;34.80;43.30;;;;;;5083786;28;20485;-85
2022/06/30 10:55:46;;;;;;;4.40;3.70;;;34.40;44.40;;;;;;5084632;28;20502;-83
2022/06/30 10:58:13;;;;;;;4.80;4.33;;;34.50;45.40;;;;;;5085406;28;20457;-85
2022/06/30 11:00:55;;;;;;;3.80;3.60;;;34.40;44.60;;;;;;5068678;28;20468;-83
2022/06/30 11:03:35;;;;;;;4.20;3.20;;;34.10;44.70;;;;;;5089396;28;20463;-85
2022/06/30 11:06:13;;;;;;;4.20;3.73;;;33.80;45.60;;;;;;5089832;28;20475;-82
2022/06/30 11:08:47;;;;;;;3.67;3.33;;;33.70;45.30;;;;;;5090315;28;20462;-85
2022/06/30 11:11:20;;;;;;;5.57;3.40;;;33.50;46.40;;;;;;5090053;28;20505;-87
2022/06/30 11:13:47;;;;;;;3.60;3.30;;;33.30;46.90;;;;;;5078735;28;20520;-85
2022/06/30 11:16:16;;;;;;;4.67;3.60;;;33.10;47.50;;;;;;5095152;28;20539;-84
2022/06/30 11:18:43;;;;;;;3.93;3.40;;;33.30;47.20;;;;;;5095480;28;20495;-85
2022/06/30 11:21:10;;;;;;;4.70;3.40;;;33.80;46.40;;;;;;5091576;28;20457;-83
2022/06/30 11:23:42;;;;;;;4.03;3.33;;;33.90;46.80;;;;;;5093276;28;20545;-84
2022/06/30 11:29:11;;;;;;;4.70;3.00;;;33.80;46.00;;;;;;5095398;28;20457;-83
2022/06/30 11:31:41;;;;;;;3.40;3.10;;;33.70;46.10;;;;;;5072616;28;20438;-86
2022/06/30 11:34:10;;;;;;;4.50;3.00;;;33.50;46.20;;;;;;5078459;28;20450;-83
2022/06/30 11:36:40;;;;;;;4.73;3.10;;;33.40;46.20;;;;;;5080285;28;20540;-84
2022/06/30 11:39:14;;;;;;;3.60;3.30;;;33.20;46.60;;;;;;5103585;28;20451;-85
2022/06/30 11:41:55;;;;;;;3.80;3.00;;;33.40;46.60;;;;;;5107105;28;20434;-82
2022/06/30 11:44:34;;;;;;;3.10;2.80;;;33.50;46.20;;;;;;5101516;28;20466;-88
2022/06/30 11:47:05;;;;;;;3.50;3.20;;;33.70;46.00;;;;;;5094614;28;20448;-86
2022/06/30 11:49:42;;;;;;;3.73;2.83;;;33.90;45.20;;;;;;5065850;28;20454;-80
2022/06/30 11:52:15;;;;;;;3.23;2.93;;;33.80;45.40;;;;;;5072021;28;20467;-84
2022/06/30 11:54:51;;;;;;;7.00;3.97;;;34.00;44.70;;;;;;5090057;28;20494;-86
2022/06/30 11:57:20;;;;;;;3.63;3.33;;;33.70;44.60;;;;;;5090936;28;20445;-82
2022/06/30 11:59:55;;;;;;;5.60;2.80;;;33.60;45.10;;;;;;5071929;28;20458;-86
2022/06/30 12:02:22;;;;;;;4.63;2.90;;;33.80;45.00;;;;;;5070177;28;20458;-86
2022/06/30 12:04:55;;;;;;;3.03;2.73;;;33.80;45.30;;;;;;5087683;28;20474;-85
2022/06/30 12:07:23;;;;;;;4.27;3.03;;;33.90;45.40;;;;;;5093688;28;20958;-85
2022/06/30 12:09:51;;;;;;;6.20;3.17;;;34.00;45.10;;;;;;5076540;28;20561;-86
2022/06/30 12:12:23;;;;;;;2.83;2.63;;;33.90;45.10;;;;;;5091946;28;20478;-83
2022/06/30 12:14:55;;;;;;;5.30;2.83;;;34.00;45.20;;;;;;5070057;28;21012;-81
2022/06/30 12:17:22;;;;;;;3.77;2.80;;;34.40;44.40;;;;;;5087160;28;20450;-83
2022/06/30 12:19:51;;;;;;;5.60;3.10;;;34.00;44.90;;;;;;5084652;28;20468;-83
2022/06/30 12:22:19;;;;;;;7.70;3.37;;;34.50;44.40;;;;;;5081487;28;20550;-86
2022/06/30 12:24:47;;;;;;;3.90;3.00;;;34.60;44.10;;;;;;5084677;28;21763;-81
2022/06/30 12:27:32;;;;;;;6.10;3.07;;;34.40;44.10;;;;;;5088553;28;20461;-83
2022/06/30 12:30:01;;;;;;;5.30;4.27;;;34.50;44.20;;;;;;5085977;28;20455;-84
2022/06/30 12:32:29;;;;;;;3.30;3.00;;;34.40;43.70;;;;;;5087492;28;20482;-85
2022/06/30 12:35:02;;;;;;;6.53;3.30;;;34.60;43.80;;;;;;5093674;28;20458;-87
2022/06/30 12:37:32;;;;;;;5.27;3.40;;;35.30;42.90;;;;;;5092046;28;20462;-84
2022/06/30 12:40:02;;;;;;;5.80;3.67;;;35.20;42.70;;;;;;5071027;28;21586;-86
2022/06/30 12:42:49;;;;;;;4.00;3.70;;;34.90;43.50;;;;;;5092356;28;20558;-83
2022/06/30 12:45:35;;;;;;;3.73;3.10;;;34.70;43.60;;;;;;5093062;28;20545;-82
2022/06/30 12:48:07;;;;;;;4.13;3.10;;;34.50;43.60;;;;;;5090971;28;20461;-83
2022/06/30 12:50:39;;;;;;;4.20;3.70;;;34.10;44.50;;;;;;5094038;28;20453;-85
2022/06/30 12:53:17;;;;;;;5.60;3.43;;;34.00;44.60;;;;;;5091803;28;20474;-84
2022/06/30 12:56:04;;;;;;;5.80;3.63;;;33.90;44.20;;;;;;5090607;28;20479;-82
2022/06/30 12:58:53;;;;;;;3.63;3.37;;;34.40;44.60;;;;;;5074328;28;20554;-84
2022/06/30 13:01:25;;;;;;;3.80;3.50;;;34.60;43.00;;;;;;5090239;28;20465;-84
2022/06/30 13:04:15;;;;;;;5.73;3.67;;;34.70;43.10;;;;;;5081972;28;20463;-80
2022/06/30 13:06:45;;;;;;;4.70;3.67;;;35.10;42.60;;;;;;5092088;28;20516;-83
2022/06/30 13:09:15;;;;;;;3.70;3.00;;;34.90;42.10;;;;;;5095342;28;20438;-84